sensor_id;sensor_type;location;lat;lon;timestamp;P1;durP1;ratioP1;P2;durP2;ratioP2
6679;SDS011;3376;42.664;23.346;2023-02-03T00:01:39;2.13;;;1.90;;
6679;SDS011;3376;42.664;23.346;2023-02-03T00:04:06;2.70;;;2.50;;
6679;SDS011;3376;42.664;23.346;2023-02-03T00:06:32;2.57;;;2.47;;
6679;SDS011;3376;42.664;23.346;2023-02-03T00:09:01;2.30;;;2.20;;
6679;SDS011;3376;42.664;23.346;2023-02-03T00:11:28;2.03;;;1.93;;
6679;SDS011;3376;42.664;23.346;2023-02-03T00:13:55;3.93;;;2.17;;
6679;SDS011;3376;42.664;23.346;2023-02-03T00:16:22;2.53;;;2.43;;
6679;SDS011;3376;42.664;23.346;2023-02-03T00:18:49;2.23;;;2.13;;
6679;SDS011;3376;42.664;23.346;2023-02-03T00:21:16;2.70;;;2.50;;
6679;SDS011;3376;42.664;23.346;2023-02-03T00:23:42;2.03;;;1.93;;
6679;SDS011;3376;42.664;23.346;2023-02-03T00:26:11;2.20;;;2.10;;
6679;SDS011;3376;42.664;23.346;2023-02-03T00:28:39;2.17;;;2.07;;
6679;SDS011;3376;42.664;23.346;2023-02-03T00:31:13;2.83;;;2.63;;
6679;SDS011;3376;42.664;23.346;2023-02-03T00:33:40;2.83;;;2.73;;
6679;SDS011;3376;42.664;23.346;2023-02-03T00:36:07;2.90;;;2.80;;
6679;SDS011;3376;42.664;23.346;2023-02-03T00:38:34;2.93;;;2.70;;
6679;SDS011;3376;42.664;23.346;2023-02-03T00:41:01;2.60;;;2.40;;
6679;SDS011;3376;42.664;23.346;2023-02-03T00:43:29;3.20;;;2.90;;
6679;SDS011;3376;42.664;23.346;2023-02-03T00:45:56;2.83;;;2.73;;
6679;SDS011;3376;42.664;23.346;2023-02-03T00:48:23;2.93;;;2.83;;
6679;SDS011;3376;42.664;23.346;2023-02-03T00:50:49;3.37;;;3.13;;
6679;SDS011;3376;42.664;23.346;2023-02-03T00:53:16;3.70;;;3.40;;
6679;SDS011;3376;42.664;23.346;2023-02-03T00:55:43;3.63;;;3.33;;
6679;SDS011;3376;42.664;23.346;2023-02-03T00:58:10;3.07;;;2.90;;
6679;SDS011;3376;42.664;23.346;2023-02-03T01:00:38;3.37;;;3.27;;
6679;SDS011;3376;42.664;23.346;2023-02-03T01:03:04;2.73;;;2.63;;
6679;SDS011;3376;42.664;23.346;2023-02-03T01:05:31;3.17;;;3.07;;
6679;SDS011;3376;42.664;23.346;2023-02-03T01:07:59;2.67;;;2.57;;
6679;SDS011;3376;42.664;23.346;2023-02-03T01:10:26;3.17;;;3.00;;
6679;SDS011;3376;42.664;23.346;2023-02-03T01:12:53;2.83;;;2.73;;
6679;SDS011;3376;42.664;23.346;2023-02-03T01:15:19;2.43;;;2.23;;
6679;SDS011;3376;42.664;23.346;2023-02-03T01:17:48;2.23;;;2.13;;
6679;SDS011;3376;42.664;23.346;2023-02-03T01:20:14;2.20;;;1.97;;
6679;SDS011;3376;42.664;23.346;2023-02-03T01:22:41;2.60;;;2.50;;
6679;SDS011;3376;42.664;23.346;2023-02-03T01:25:08;1.90;;;1.80;;
6679;SDS011;3376;42.664;23.346;2023-02-03T01:27:35;2.57;;;1.90;;
6679;SDS011;3376;42.664;23.346;2023-02-03T01:30:01;2.07;;;1.97;;
6679;SDS011;3376;42.664;23.346;2023-02-03T01:32:28;2.03;;;1.93;;
6679;SDS011;3376;42.664;23.346;2023-02-03T01:34:56;2.00;;;1.80;;
6679;SDS011;3376;42.664;23.346;2023-02-03T01:37:23;4.17;;;1.57;;
6679;SDS011;3376;42.664;23.346;2023-02-03T01:39:50;1.40;;;1.40;;
6679;SDS011;3376;42.664;23.346;2023-02-03T01:42:17;1.57;;;1.57;;
6679;SDS011;3376;42.664;23.346;2023-02-03T01:44:45;1.30;;;1.30;;
6679;SDS011;3376;42.664;23.346;2023-02-03T01:47:16;1.87;;;1.43;;
6679;SDS011;3376;42.664;23.346;2023-02-03T01:49:48;1.03;;;1.03;;
6679;SDS011;3376;42.664;23.346;2023-02-03T01:52:22;1.70;;;1.60;;
6679;SDS011;3376;42.664;23.346;2023-02-03T01:54:50;1.43;;;1.43;;
6679;SDS011;3376;42.664;23.346;2023-02-03T01:57:20;1.40;;;1.40;;
6679;SDS011;3376;42.664;23.346;2023-02-03T01:59:50;1.17;;;1.17;;
6679;SDS011;3376;42.664;23.346;2023-02-03T02:02:19;1.63;;;1.20;;
6679;SDS011;3376;42.664;23.346;2023-02-03T02:04:49;1.10;;;1.10;;
6679;SDS011;3376;42.664;23.346;2023-02-03T02:07:20;1.30;;;1.20;;
6679;SDS011;3376;42.664;23.346;2023-02-03T02:09:50;1.40;;;1.40;;
6679;SDS011;3376;42.664;23.346;2023-02-03T02:12:17;1.67;;;1.63;;
6679;SDS011;3376;42.664;23.346;2023-02-03T02:14:45;1.33;;;1.33;;
6679;SDS011;3376;42.664;23.346;2023-02-03T02:17:16;1.53;;;1.30;;
6679;SDS011;3376;42.664;23.346;2023-02-03T02:22:56;1.73;;;1.63;;
6679;SDS011;3376;42.664;23.346;2023-02-03T02:25:47;1.43;;;1.43;;
6679;SDS011;3376;42.664;23.346;2023-02-03T02:28:37;1.37;;;1.37;;
6679;SDS011;3376;42.664;23.346;2023-02-03T02:31:34;1.60;;;1.53;;
6679;SDS011;3376;42.664;23.346;2023-02-03T02:34:13;1.57;;;1.53;;
6679;SDS011;3376;42.664;23.346;2023-02-03T02:36:53;2.00;;;1.90;;
6679;SDS011;3376;42.664;23.346;2023-02-03T02:39:31;2.10;;;2.00;;
6679;SDS011;3376;42.664;23.346;2023-02-03T02:42:06;2.00;;;1.90;;
6679;SDS011;3376;42.664;23.346;2023-02-03T02:44:40;1.77;;;1.77;;
6679;SDS011;3376;42.664;23.346;2023-02-03T02:47:15;1.60;;;1.50;;
6679;SDS011;3376;42.664;23.346;2023-02-03T02:49:44;1.70;;;1.60;;
6679;SDS011;3376;42.664;23.346;2023-02-03T02:52:16;1.63;;;1.63;;
6679;SDS011;3376;42.664;23.346;2023-02-03T02:54:46;1.70;;;1.70;;
6679;SDS011;3376;42.664;23.346;2023-02-03T02:57:16;1.50;;;1.50;;
6679;SDS011;3376;42.664;23.346;2023-02-03T02:59:45;1.87;;;1.80;;
6679;SDS011;3376;42.664;23.346;2023-02-03T03:02:12;2.00;;;1.90;;
6679;SDS011;3376;42.664;23.346;2023-02-03T03:04:41;1.90;;;1.80;;
6679;SDS011;3376;42.664;23.346;2023-02-03T03:07:11;1.73;;;1.63;;
6679;SDS011;3376;42.664;23.346;2023-02-03T03:09:43;1.80;;;1.70;;
6679;SDS011;3376;42.664;23.346;2023-02-03T03:12:14;1.90;;;1.80;;
6679;SDS011;3376;42.664;23.346;2023-02-03T03:14:47;2.00;;;1.90;;
6679;SDS011;3376;42.664;23.346;2023-02-03T03:17:19;1.90;;;1.63;;
6679;SDS011;3376;42.664;23.346;2023-02-03T03:19:51;2.00;;;1.90;;
6679;SDS011;3376;42.664;23.346;2023-02-03T03:22:23;1.27;;;1.27;;
6679;SDS011;3376;42.664;23.346;2023-02-03T03:24:56;2.10;;;2.00;;
6679;SDS011;3376;42.664;23.346;2023-02-03T03:27:28;2.20;;;2.10;;
6679;SDS011;3376;42.664;23.346;2023-02-03T03:30:00;2.10;;;2.00;;
6679;SDS011;3376;42.664;23.346;2023-02-03T03:32:32;1.77;;;1.67;;
6679;SDS011;3376;42.664;23.346;2023-02-03T03:34:59;1.70;;;1.70;;
6679;SDS011;3376;42.664;23.346;2023-02-03T03:37:30;2.00;;;1.90;;
6679;SDS011;3376;42.664;23.346;2023-02-03T03:40:01;2.20;;;2.10;;
6679;SDS011;3376;42.664;23.346;2023-02-03T03:42:35;1.63;;;1.53;;
6679;SDS011;3376;42.664;23.346;2023-02-03T03:45:06;2.00;;;1.90;;
6679;SDS011;3376;42.664;23.346;2023-02-03T03:47:41;1.47;;;1.47;;
6679;SDS011;3376;42.664;23.346;2023-02-03T03:50:14;1.63;;;1.60;;
6679;SDS011;3376;42.664;23.346;2023-02-03T03:52:44;1.50;;;1.30;;
6679;SDS011;3376;42.664;23.346;2023-02-03T03:55:14;1.40;;;1.30;;
6679;SDS011;3376;42.664;23.346;2023-02-03T03:57:45;1.70;;;1.70;;
6679;SDS011;3376;42.664;23.346;2023-02-03T04:00:19;1.50;;;1.50;;
6679;SDS011;3376;42.664;23.346;2023-02-03T04:02:51;1.30;;;1.30;;
6679;SDS011;3376;42.664;23.346;2023-02-03T04:05:20;2.43;;;1.50;;
6679;SDS011;3376;42.664;23.346;2023-02-03T04:07:48;1.70;;;1.60;;
6679;SDS011;3376;42.664;23.346;2023-02-03T04:10:17;1.90;;;1.80;;
6679;SDS011;3376;42.664;23.346;2023-02-03T04:12:50;1.77;;;1.67;;
6679;SDS011;3376;42.664;23.346;2023-02-03T04:15:16;1.93;;;1.83;;
6679;SDS011;3376;42.664;23.346;2023-02-03T04:17:43;1.77;;;1.67;;
6679;SDS011;3376;42.664;23.346;2023-02-03T04:20:12;2.20;;;2.10;;
6679;SDS011;3376;42.664;23.346;2023-02-03T04:22:39;2.03;;;1.93;;
6679;SDS011;3376;42.664;23.346;2023-02-03T04:25:06;1.60;;;1.60;;
6679;SDS011;3376;42.664;23.346;2023-02-03T04:27:33;1.60;;;1.60;;
6679;SDS011;3376;42.664;23.346;2023-02-03T04:30:01;2.50;;;2.40;;
6679;SDS011;3376;42.664;23.346;2023-02-03T04:32:28;4.53;;;1.87;;
6679;SDS011;3376;42.664;23.346;2023-02-03T04:34:55;2.03;;;1.93;;
6679;SDS011;3376;42.664;23.346;2023-02-03T04:37:24;2.30;;;2.10;;
6679;SDS011;3376;42.664;23.346;2023-02-03T04:39:51;3.60;;;2.03;;
6679;SDS011;3376;42.664;23.346;2023-02-03T04:42:19;1.77;;;1.77;;
6679;SDS011;3376;42.664;23.346;2023-02-03T04:44:46;1.80;;;1.67;;
6679;SDS011;3376;42.664;23.346;2023-02-03T04:47:13;2.10;;;2.00;;
6679;SDS011;3376;42.664;23.346;2023-02-03T04:49:40;2.27;;;2.10;;
6679;SDS011;3376;42.664;23.346;2023-02-03T04:52:07;2.10;;;1.90;;
6679;SDS011;3376;42.664;23.346;2023-02-03T04:54:35;1.90;;;1.90;;
6679;SDS011;3376;42.664;23.346;2023-02-03T04:57:03;2.27;;;2.17;;
6679;SDS011;3376;42.664;23.346;2023-02-03T04:59:30;2.20;;;2.10;;
6679;SDS011;3376;42.664;23.346;2023-02-03T05:01:57;1.80;;;1.73;;
6679;SDS011;3376;42.664;23.346;2023-02-03T05:04:23;2.30;;;2.20;;
6679;SDS011;3376;42.664;23.346;2023-02-03T05:06:50;2.53;;;2.33;;
6679;SDS011;3376;42.664;23.346;2023-02-03T05:09:17;2.03;;;2.03;;
6679;SDS011;3376;42.664;23.346;2023-02-03T05:11:45;2.20;;;2.10;;
6679;SDS011;3376;42.664;23.346;2023-02-03T05:14:12;2.20;;;2.10;;
6679;SDS011;3376;42.664;23.346;2023-02-03T05:16:38;2.27;;;2.17;;
6679;SDS011;3376;42.664;23.346;2023-02-03T05:19:06;2.20;;;2.10;;
6679;SDS011;3376;42.664;23.346;2023-02-03T05:21:33;2.50;;;2.40;;
6679;SDS011;3376;42.664;23.346;2023-02-03T05:24:00;2.33;;;2.20;;
6679;SDS011;3376;42.664;23.346;2023-02-03T05:26:30;2.60;;;2.50;;
6679;SDS011;3376;42.664;23.346;2023-02-03T05:28:59;2.40;;;2.30;;
6679;SDS011;3376;42.664;23.346;2023-02-03T05:31:26;2.80;;;2.60;;
6679;SDS011;3376;42.664;23.346;2023-02-03T05:33:52;2.97;;;2.87;;
6679;SDS011;3376;42.664;23.346;2023-02-03T05:36:19;2.70;;;2.60;;
6679;SDS011;3376;42.664;23.346;2023-02-03T05:38:46;2.30;;;2.30;;
6679;SDS011;3376;42.664;23.346;2023-02-03T05:41:13;2.37;;;2.27;;
6679;SDS011;3376;42.664;23.346;2023-02-03T05:43:56;2.70;;;2.57;;
6679;SDS011;3376;42.664;23.346;2023-02-03T05:46:25;2.47;;;2.37;;
6679;SDS011;3376;42.664;23.346;2023-02-03T05:48:51;2.27;;;2.23;;
6679;SDS011;3376;42.664;23.346;2023-02-03T05:51:19;2.63;;;2.53;;
6679;SDS011;3376;42.664;23.346;2023-02-03T05:53:46;2.20;;;2.10;;
6679;SDS011;3376;42.664;23.346;2023-02-03T05:56:12;3.20;;;2.10;;
6679;SDS011;3376;42.664;23.346;2023-02-03T05:58:39;2.30;;;2.20;;
6679;SDS011;3376;42.664;23.346;2023-02-03T06:01:06;2.60;;;2.43;;
6679;SDS011;3376;42.664;23.346;2023-02-03T06:03:34;2.67;;;2.57;;
6679;SDS011;3376;42.664;23.346;2023-02-03T06:06:00;2.70;;;2.60;;
6679;SDS011;3376;42.664;23.346;2023-02-03T06:08:27;2.30;;;2.20;;
6679;SDS011;3376;42.664;23.346;2023-02-03T06:10:56;2.50;;;2.30;;
6679;SDS011;3376;42.664;23.346;2023-02-03T06:13:24;2.73;;;2.53;;
6679;SDS011;3376;42.664;23.346;2023-02-03T06:15:50;2.80;;;2.70;;
6679;SDS011;3376;42.664;23.346;2023-02-03T06:18:17;2.70;;;2.60;;
6679;SDS011;3376;42.664;23.346;2023-02-03T06:20:45;2.50;;;2.40;;
6679;SDS011;3376;42.664;23.346;2023-02-03T06:23:12;2.23;;;2.13;;
6679;SDS011;3376;42.664;23.346;2023-02-03T06:25:42;3.00;;;2.70;;
6679;SDS011;3376;42.664;23.346;2023-02-03T06:28:09;2.77;;;2.67;;
6679;SDS011;3376;42.664;23.346;2023-02-03T06:30:35;3.50;;;3.40;;
6679;SDS011;3376;42.664;23.346;2023-02-03T06:33:02;3.10;;;2.90;;
6679;SDS011;3376;42.664;23.346;2023-02-03T06:35:29;2.33;;;2.23;;
6679;SDS011;3376;42.664;23.346;2023-02-03T06:37:57;2.40;;;2.30;;
6679;SDS011;3376;42.664;23.346;2023-02-03T06:40:24;1.70;;;1.70;;
6679;SDS011;3376;42.664;23.346;2023-02-03T06:42:51;1.80;;;1.73;;
6679;SDS011;3376;42.664;23.346;2023-02-03T06:45:17;1.73;;;1.63;;
6679;SDS011;3376;42.664;23.346;2023-02-03T06:47:44;5.27;;;1.80;;
6679;SDS011;3376;42.664;23.346;2023-02-03T06:50:12;1.33;;;1.33;;
6679;SDS011;3376;42.664;23.346;2023-02-03T06:52:40;2.60;;;1.60;;
6679;SDS011;3376;42.664;23.346;2023-02-03T06:55:09;1.23;;;1.20;;
6679;SDS011;3376;42.664;23.346;2023-02-03T06:57:41;1.97;;;1.30;;
6679;SDS011;3376;42.664;23.346;2023-02-03T07:00:09;1.50;;;1.40;;
6679;SDS011;3376;42.664;23.346;2023-02-03T07:02:37;1.30;;;1.30;;
6679;SDS011;3376;42.664;23.346;2023-02-03T07:05:04;1.30;;;1.30;;
6679;SDS011;3376;42.664;23.346;2023-02-03T07:07:32;1.00;;;1.00;;
6679;SDS011;3376;42.664;23.346;2023-02-03T07:09:58;1.00;;;1.00;;
6679;SDS011;3376;42.664;23.346;2023-02-03T07:12:26;1.27;;;1.27;;
6679;SDS011;3376;42.664;23.346;2023-02-03T07:14:53;1.27;;;1.27;;
6679;SDS011;3376;42.664;23.346;2023-02-03T07:17:20;1.70;;;1.60;;
6679;SDS011;3376;42.664;23.346;2023-02-03T07:19:47;1.33;;;1.23;;
6679;SDS011;3376;42.664;23.346;2023-02-03T07:22:13;2.60;;;2.50;;
6679;SDS011;3376;42.664;23.346;2023-02-03T07:24:40;1.83;;;1.80;;
6679;SDS011;3376;42.664;23.346;2023-02-03T07:27:07;2.07;;;1.40;;
6679;SDS011;3376;42.664;23.346;2023-02-03T07:29:35;1.20;;;1.20;;
6679;SDS011;3376;42.664;23.346;2023-02-03T07:32:02;1.27;;;1.27;;
6679;SDS011;3376;42.664;23.346;2023-02-03T07:34:29;2.93;;;1.30;;
6679;SDS011;3376;42.664;23.346;2023-02-03T07:36:55;2.57;;;2.00;;
6679;SDS011;3376;42.664;23.346;2023-02-03T07:39:22;1.83;;;1.73;;
6679;SDS011;3376;42.664;23.346;2023-02-03T07:41:49;1.93;;;1.87;;
6679;SDS011;3376;42.664;23.346;2023-02-03T07:44:16;1.53;;;1.53;;
6679;SDS011;3376;42.664;23.346;2023-02-03T07:46:44;2.00;;;1.80;;
6679;SDS011;3376;42.664;23.346;2023-02-03T07:49:11;1.53;;;1.43;;
6679;SDS011;3376;42.664;23.346;2023-02-03T07:51:38;1.20;;;1.20;;
6679;SDS011;3376;42.664;23.346;2023-02-03T07:54:05;2.97;;;1.83;;
6679;SDS011;3376;42.664;23.346;2023-02-03T07:56:32;2.10;;;2.00;;
6679;SDS011;3376;42.664;23.346;2023-02-03T07:58:58;3.17;;;1.80;;
6679;SDS011;3376;42.664;23.346;2023-02-03T08:01:25;1.53;;;1.40;;
6679;SDS011;3376;42.664;23.346;2023-02-03T08:03:54;1.20;;;1.20;;
6679;SDS011;3376;42.664;23.346;2023-02-03T08:06:20;1.63;;;1.53;;
6679;SDS011;3376;42.664;23.346;2023-02-03T08:08:47;1.63;;;1.53;;
6679;SDS011;3376;42.664;23.346;2023-02-03T08:11:14;1.50;;;1.43;;
6679;SDS011;3376;42.664;23.346;2023-02-03T08:13:41;1.67;;;1.57;;
6679;SDS011;3376;42.664;23.346;2023-02-03T08:16:07;1.53;;;1.43;;
6679;SDS011;3376;42.664;23.346;2023-02-03T08:18:34;1.50;;;1.40;;
6679;SDS011;3376;42.664;23.346;2023-02-03T08:21:02;1.20;;;1.10;;
6679;SDS011;3376;42.664;23.346;2023-02-03T08:23:29;1.93;;;1.83;;
6679;SDS011;3376;42.664;23.346;2023-02-03T08:25:56;1.70;;;1.60;;
6679;SDS011;3376;42.664;23.346;2023-02-03T08:28:23;1.30;;;1.30;;
6679;SDS011;3376;42.664;23.346;2023-02-03T08:30:50;2.20;;;2.10;;
6679;SDS011;3376;42.664;23.346;2023-02-03T08:33:17;2.57;;;1.33;;
6679;SDS011;3376;42.664;23.346;2023-02-03T08:35:44;1.50;;;1.40;;
6679;SDS011;3376;42.664;23.346;2023-02-03T08:38:13;2.20;;;1.30;;
6679;SDS011;3376;42.664;23.346;2023-02-03T08:40:40;2.73;;;1.73;;
6679;SDS011;3376;42.664;23.346;2023-02-03T08:43:07;2.63;;;2.53;;
6679;SDS011;3376;42.664;23.346;2023-02-03T08:45:35;2.30;;;1.80;;
6679;SDS011;3376;42.664;23.346;2023-02-03T08:48:02;1.57;;;1.47;;
6679;SDS011;3376;42.664;23.346;2023-02-03T08:50:28;1.77;;;1.67;;
6679;SDS011;3376;42.664;23.346;2023-02-03T08:52:55;1.37;;;1.33;;
6679;SDS011;3376;42.664;23.346;2023-02-03T08:55:23;1.50;;;1.40;;
6679;SDS011;3376;42.664;23.346;2023-02-03T08:57:50;1.80;;;1.70;;
6679;SDS011;3376;42.664;23.346;2023-02-03T09:00:17;1.93;;;1.67;;
6679;SDS011;3376;42.664;23.346;2023-02-03T09:02:45;3.10;;;2.87;;
6679;SDS011;3376;42.664;23.346;2023-02-03T09:05:11;1.20;;;1.20;;
6679;SDS011;3376;42.664;23.346;2023-02-03T09:07:39;1.20;;;1.20;;
6679;SDS011;3376;42.664;23.346;2023-02-03T09:10:06;1.60;;;1.60;;
6679;SDS011;3376;42.664;23.346;2023-02-03T09:12:35;1.60;;;1.50;;
6679;SDS011;3376;42.664;23.346;2023-02-03T09:15:02;2.50;;;2.27;;
6679;SDS011;3376;42.664;23.346;2023-02-03T09:17:29;1.33;;;1.30;;
6679;SDS011;3376;42.664;23.346;2023-02-03T09:19:55;2.80;;;1.50;;
6679;SDS011;3376;42.664;23.346;2023-02-03T09:22:22;1.03;;;1.03;;
6679;SDS011;3376;42.664;23.346;2023-02-03T09:24:49;64.83;;;3.37;;
6679;SDS011;3376;42.664;23.346;2023-02-03T09:27:16;1.50;;;1.40;;
6679;SDS011;3376;42.664;23.346;2023-02-03T09:29:44;6.17;;;1.67;;
6679;SDS011;3376;42.664;23.346;2023-02-03T09:32:11;1.60;;;1.50;;
6679;SDS011;3376;42.664;23.346;2023-02-03T09:34:38;1.87;;;1.77;;
6679;SDS011;3376;42.664;23.346;2023-02-03T09:37:05;3.07;;;2.17;;
6679;SDS011;3376;42.664;23.346;2023-02-03T09:39:32;2.40;;;1.87;;
6679;SDS011;3376;42.664;23.346;2023-02-03T09:42:05;1.50;;;1.40;;
6679;SDS011;3376;42.664;23.346;2023-02-03T09:44:46;1.23;;;1.23;;
6679;SDS011;3376;42.664;23.346;2023-02-03T09:47:17;3.07;;;1.10;;
6679;SDS011;3376;42.664;23.346;2023-02-03T09:49:49;1.10;;;1.10;;
6679;SDS011;3376;42.664;23.346;2023-02-03T09:52:17;1.20;;;1.20;;
6679;SDS011;3376;42.664;23.346;2023-02-03T09:54:48;2.77;;;1.40;;
6679;SDS011;3376;42.664;23.346;2023-02-03T09:57:19;1.00;;;1.00;;
6679;SDS011;3376;42.664;23.346;2023-02-03T09:59:49;1.20;;;1.20;;
6679;SDS011;3376;42.664;23.346;2023-02-03T10:02:22;1.03;;;1.00;;
6679;SDS011;3376;42.664;23.346;2023-02-03T10:04:58;1.67;;;1.00;;
6679;SDS011;3376;42.664;23.346;2023-02-03T10:07:31;1.00;;;1.00;;
6679;SDS011;3376;42.664;23.346;2023-02-03T10:10:08;3.20;;;1.10;;
6679;SDS011;3376;42.664;23.346;2023-02-03T10:12:49;1.70;;;1.30;;
6679;SDS011;3376;42.664;23.346;2023-02-03T10:18:39;1.60;;;1.60;;
6679;SDS011;3376;42.664;23.346;2023-02-03T10:21:11;1.53;;;1.43;;
6679;SDS011;3376;42.664;23.346;2023-02-03T10:23:41;1.80;;;1.40;;
6679;SDS011;3376;42.664;23.346;2023-02-03T10:26:11;2.17;;;1.33;;
6679;SDS011;3376;42.664;23.346;2023-02-03T10:28:43;1.20;;;1.10;;
6679;SDS011;3376;42.664;23.346;2023-02-03T10:31:16;1.60;;;1.50;;
6679;SDS011;3376;42.664;23.346;2023-02-03T10:33:47;3.00;;;1.80;;
6679;SDS011;3376;42.664;23.346;2023-02-03T10:36:18;1.67;;;1.57;;
6679;SDS011;3376;42.664;23.346;2023-02-03T10:38:48;1.60;;;1.57;;
6679;SDS011;3376;42.664;23.346;2023-02-03T10:41:24;1.77;;;1.13;;
6679;SDS011;3376;42.664;23.346;2023-02-03T10:43:54;2.30;;;1.40;;
6679;SDS011;3376;42.664;23.346;2023-02-03T10:46:25;1.17;;;1.17;;
6679;SDS011;3376;42.664;23.346;2023-02-03T10:48:54;1.70;;;1.60;;
6679;SDS011;3376;42.664;23.346;2023-02-03T10:51:22;1.73;;;1.67;;
6679;SDS011;3376;42.664;23.346;2023-02-03T10:53:51;1.80;;;1.70;;
6679;SDS011;3376;42.664;23.346;2023-02-03T10:56:19;1.90;;;1.80;;
6679;SDS011;3376;42.664;23.346;2023-02-03T10:58:49;1.50;;;1.40;;
6679;SDS011;3376;42.664;23.346;2023-02-03T11:01:20;1.57;;;1.57;;
6679;SDS011;3376;42.664;23.346;2023-02-03T11:03:55;1.90;;;1.43;;
6679;SDS011;3376;42.664;23.346;2023-02-03T11:06:24;1.63;;;1.53;;
6679;SDS011;3376;42.664;23.346;2023-02-03T11:08:51;1.70;;;1.60;;
6679;SDS011;3376;42.664;23.346;2023-02-03T11:11:19;3.53;;;1.53;;
6679;SDS011;3376;42.664;23.346;2023-02-03T11:13:51;2.50;;;1.77;;
6679;SDS011;3376;42.664;23.346;2023-02-03T11:16:19;1.43;;;1.33;;
6679;SDS011;3376;42.664;23.346;2023-02-03T11:18:53;4.23;;;1.47;;
6679;SDS011;3376;42.664;23.346;2023-02-03T11:21:24;1.73;;;1.63;;
6679;SDS011;3376;42.664;23.346;2023-02-03T11:23:59;2.70;;;1.40;;
6679;SDS011;3376;42.664;23.346;2023-02-03T11:26:28;4.43;;;1.40;;
6679;SDS011;3376;42.664;23.346;2023-02-03T11:28:58;1.17;;;1.10;;
6679;SDS011;3376;42.664;23.346;2023-02-03T11:31:27;1.57;;;1.20;;
6679;SDS011;3376;42.664;23.346;2023-02-03T11:33:58;1.30;;;1.30;;
6679;SDS011;3376;42.664;23.346;2023-02-03T11:36:28;1.13;;;1.13;;
6679;SDS011;3376;42.664;23.346;2023-02-03T11:39:07;2.83;;;1.00;;
6679;SDS011;3376;42.664;23.346;2023-02-03T11:41:45;0.80;;;0.80;;
6679;SDS011;3376;42.664;23.346;2023-02-03T11:44:15;1.67;;;1.57;;
6679;SDS011;3376;42.664;23.346;2023-02-03T11:46:44;1.00;;;1.00;;
6679;SDS011;3376;42.664;23.346;2023-02-03T11:52:17;0.90;;;0.90;;
6679;SDS011;3376;42.664;23.346;2023-02-03T11:54:57;0.93;;;0.93;;
6679;SDS011;3376;42.664;23.346;2023-02-03T11:57:35;1.40;;;1.30;;
6679;SDS011;3376;42.664;23.346;2023-02-03T12:00:16;1.60;;;1.20;;
6679;SDS011;3376;42.664;23.346;2023-02-03T12:03:01;2.50;;;1.63;;
6679;SDS011;3376;42.664;23.346;2023-02-03T12:08:50;1.50;;;1.40;;
6679;SDS011;3376;42.664;23.346;2023-02-03T12:11:28;1.27;;;1.00;;
6679;SDS011;3376;42.664;23.346;2023-02-03T12:14:10;2.20;;;1.10;;
6679;SDS011;3376;42.664;23.346;2023-02-03T12:17:12;0.90;;;0.90;;
6679;SDS011;3376;42.664;23.346;2023-02-03T12:20:05;1.10;;;1.10;;
6679;SDS011;3376;42.664;23.346;2023-02-03T12:22:49;1.33;;;1.33;;
6679;SDS011;3376;42.664;23.346;2023-02-03T12:25:30;0.97;;;0.97;;
6679;SDS011;3376;42.664;23.346;2023-02-03T12:28:04;1.17;;;0.80;;
6679;SDS011;3376;42.664;23.346;2023-02-03T12:30:43;1.20;;;1.20;;
6679;SDS011;3376;42.664;23.346;2023-02-03T12:33:16;0.87;;;0.87;;
6679;SDS011;3376;42.664;23.346;2023-02-03T12:35:47;0.90;;;0.90;;
6679;SDS011;3376;42.664;23.346;2023-02-03T12:38:20;1.00;;;0.90;;
6679;SDS011;3376;42.664;23.346;2023-02-03T12:40:57;1.00;;;1.00;;
6679;SDS011;3376;42.664;23.346;2023-02-03T12:43:26;1.00;;;1.00;;
6679;SDS011;3376;42.664;23.346;2023-02-03T12:46:03;1.07;;;1.07;;
6679;SDS011;3376;42.664;23.346;2023-02-03T12:48:36;0.93;;;0.93;;
6679;SDS011;3376;42.664;23.346;2023-02-03T12:51:11;1.57;;;1.47;;
6679;SDS011;3376;42.664;23.346;2023-02-03T12:53:46;1.47;;;1.27;;
6679;SDS011;3376;42.664;23.346;2023-02-03T12:56:17;0.97;;;0.97;;
6679;SDS011;3376;42.664;23.346;2023-02-03T12:58:51;0.90;;;0.90;;
6679;SDS011;3376;42.664;23.346;2023-02-03T13:01:23;1.63;;;1.63;;
6679;SDS011;3376;42.664;23.346;2023-02-03T13:03:54;2.20;;;1.30;;
6679;SDS011;3376;42.664;23.346;2023-02-03T13:06:28;1.40;;;1.40;;
6679;SDS011;3376;42.664;23.346;2023-02-03T13:09:01;1.20;;;1.20;;
6679;SDS011;3376;42.664;23.346;2023-02-03T13:11:32;2.40;;;1.93;;
6679;SDS011;3376;42.664;23.346;2023-02-03T13:14:09;1.90;;;1.80;;
6679;SDS011;3376;42.664;23.346;2023-02-03T13:16:42;3.63;;;1.60;;
6679;SDS011;3376;42.664;23.346;2023-02-03T13:19:14;1.70;;;1.60;;
6679;SDS011;3376;42.664;23.346;2023-02-03T13:21:46;2.00;;;1.90;;
6679;SDS011;3376;42.664;23.346;2023-02-03T13:24:15;1.30;;;1.30;;
6679;SDS011;3376;42.664;23.346;2023-02-03T13:26:48;1.97;;;1.87;;
6679;SDS011;3376;42.664;23.346;2023-02-03T13:29:35;2.60;;;2.40;;
6679;SDS011;3376;42.664;23.346;2023-02-03T13:32:17;2.63;;;1.63;;
6679;SDS011;3376;42.664;23.346;2023-02-03T13:35:00;1.93;;;1.83;;
6679;SDS011;3376;42.664;23.346;2023-02-03T13:40:59;1.90;;;1.80;;
6679;SDS011;3376;42.664;23.346;2023-02-03T13:43:32;1.80;;;1.70;;
6679;SDS011;3376;42.664;23.346;2023-02-03T13:46:02;2.20;;;2.10;;
6679;SDS011;3376;42.664;23.346;2023-02-03T13:48:31;2.83;;;2.07;;
6679;SDS011;3376;42.664;23.346;2023-02-03T13:51:04;2.23;;;2.13;;
6679;SDS011;3376;42.664;23.346;2023-02-03T13:53:34;1.60;;;1.50;;
6679;SDS011;3376;42.664;23.346;2023-02-03T13:56:05;2.10;;;2.00;;
6679;SDS011;3376;42.664;23.346;2023-02-03T13:58:34;2.80;;;2.23;;
6679;SDS011;3376;42.664;23.346;2023-02-03T14:01:24;2.50;;;2.40;;
6679;SDS011;3376;42.664;23.346;2023-02-03T14:03:54;3.10;;;2.57;;
6679;SDS011;3376;42.664;23.346;2023-02-03T14:09:25;3.10;;;2.50;;
6679;SDS011;3376;42.664;23.346;2023-02-03T14:17:56;2.77;;;2.67;;
6679;SDS011;3376;42.664;23.346;2023-02-03T14:20:38;3.40;;;3.20;;
6679;SDS011;3376;42.664;23.346;2023-02-03T14:23:08;2.73;;;2.23;;
6679;SDS011;3376;42.664;23.346;2023-02-03T14:25:40;2.70;;;2.60;;
6679;SDS011;3376;42.664;23.346;2023-02-03T14:28:11;2.73;;;2.53;;
6679;SDS011;3376;42.664;23.346;2023-02-03T14:31:03;2.17;;;2.07;;
6679;SDS011;3376;42.664;23.346;2023-02-03T14:36:41;2.77;;;2.60;;
6679;SDS011;3376;42.664;23.346;2023-02-03T14:48:40;3.10;;;2.50;;
6679;SDS011;3376;42.664;23.346;2023-02-03T14:51:29;1.93;;;1.90;;
6679;SDS011;3376;42.664;23.346;2023-02-03T14:57:13;2.47;;;1.97;;
6679;SDS011;3376;42.664;23.346;2023-02-03T14:59:53;1.90;;;1.80;;
6679;SDS011;3376;42.664;23.346;2023-02-03T15:02:25;2.10;;;2.00;;
6679;SDS011;3376;42.664;23.346;2023-02-03T15:07:55;2.63;;;2.43;;
6679;SDS011;3376;42.664;23.346;2023-02-03T15:10:22;2.37;;;2.17;;
6679;SDS011;3376;42.664;23.346;2023-02-03T15:12:52;3.23;;;2.30;;
6679;SDS011;3376;42.664;23.346;2023-02-03T15:15:21;2.47;;;2.23;;
6679;SDS011;3376;42.664;23.346;2023-02-03T15:17:52;2.10;;;1.90;;
6679;SDS011;3376;42.664;23.346;2023-02-03T15:20:23;2.30;;;2.20;;
6679;SDS011;3376;42.664;23.346;2023-02-03T15:22:52;3.20;;;2.33;;
6679;SDS011;3376;42.664;23.346;2023-02-03T15:25:20;3.73;;;2.40;;
6679;SDS011;3376;42.664;23.346;2023-02-03T15:27:50;2.40;;;2.30;;
6679;SDS011;3376;42.664;23.346;2023-02-03T15:30:17;2.70;;;2.50;;
6679;SDS011;3376;42.664;23.346;2023-02-03T15:32:52;2.17;;;2.07;;
6679;SDS011;3376;42.664;23.346;2023-02-03T15:35:27;2.63;;;2.47;;
6679;SDS011;3376;42.664;23.346;2023-02-03T15:37:57;1.60;;;1.60;;
6679;SDS011;3376;42.664;23.346;2023-02-03T15:40:28;2.17;;;2.07;;
6679;SDS011;3376;42.664;23.346;2023-02-03T15:43:01;2.20;;;2.10;;
6679;SDS011;3376;42.664;23.346;2023-02-03T15:45:32;2.17;;;2.00;;
6679;SDS011;3376;42.664;23.346;2023-02-03T15:48:06;1.90;;;1.80;;
6679;SDS011;3376;42.664;23.346;2023-02-03T15:50:40;2.13;;;1.87;;
6679;SDS011;3376;42.664;23.346;2023-02-03T15:53:14;1.80;;;1.70;;
6679;SDS011;3376;42.664;23.346;2023-02-03T15:55:46;2.27;;;2.17;;
6679;SDS011;3376;42.664;23.346;2023-02-03T15:58:16;4.00;;;2.17;;
6679;SDS011;3376;42.664;23.346;2023-02-03T16:00:47;2.20;;;2.10;;
6679;SDS011;3376;42.664;23.346;2023-02-03T16:03:17;2.10;;;2.00;;